TAF KOGB
AMD KOGB 082109Z 0821/0918 34004KT 6SM BR OVC004 FM090000 32005KT P6SM BKN012 FM090100 28003KT P6SM SCT015 FM090300 VRB03KT P6SM FEW025 SCT250 FM090700 00000KT 2SM BR SCT250 TEMPO 0910/0913 3/4SM BR FEW001 FM091400 10004KT 6SM BR SKC=
METAR KOGB
WC KOGB
WS KOGB
WV KOGB